Hub


Voltar

 INFORMAÇÕES METEOROLÓGICAS

METAR FOR PAWD


ADDS - METARS form results

(2018 UTC 17 January 2019)
Data provider http://aviationweather.gov/metar/data/
 
METAR text: PAWD 171953Z AUTO 01012G20KT 10SM CLR 02/M01 A2961 RMK SLP027 T00171006 TSNO VIA AUTODIAL
Conditions at: PAWD (SEWARD , AK, US) observed 1953 UTC 17 January 2019
Temperature: 1.7°C (35°F)
Dewpoint: -0.6°C (31°F) [RH = 85%]
Pressure (altimeter): 29.61 inches Hg (1002.8 mb)
[Sea-level pressure: 1002.7 mb]
Winds: from the N (10 degrees) at 14 MPH (12 knots; 6.2 m/s)
gusting to 23 MPH (20 knots; 10.3 m/s)
Visibility: 10 or more miles (16+ km)
Ceiling: at least 12,000 feet AGL
Clouds: sky clear below 12,000 feet AGL
Weather: no significant weather observed at this time


 MAPA DO AEROPORTO


 INFORMAÇÕES DA PISTA

Pista 13 Tamanho da pista 4240 ft Largura da pista 100 ft
Elevação da pista 22 ft Ranhura da pista 0 ft Proa da pista 144
Pista 31 Tamanho da pista 4240 ft Largura da pista 100 ft
Elevação da pista 22 ft Ranhura da pista 0 ft Proa da pista 324
Pista 16 Tamanho da pista 2279 ft Largura da pista 75 ft
Elevação da pista 0 ft Ranhura da pista 0 ft Proa da pista 174
Pista 34 Tamanho da pista 2279 ft Largura da pista 75 ft
Elevação da pista 0 ft Ranhura da pista 0 ft Proa da pista 354

 FREQUÊNCIAS DO AEROPORTO

Tipo ASOS Nome ASOS Frequência 135.2 MHZ
Tipo CTAF Nome CTAF Frequência 122.9 MHZ
Tipo FSS Nome KENAI RDO Frequência 122.6 MHZ

 AUXÍLIOS DE NAVEGAÇÃO PRÓXIMOS AO AEROPORTO